sensor_id;sensor_type;location;lat;lon;timestamp;pressure;altitude;pressure_sealevel;temperature
42197;BMP280;27866;48.146;17.098;2023-07-13T00:00:40;99266.59;;;24.63
42197;BMP280;27866;48.146;17.098;2023-07-13T00:04:51;99262.72;;;24.59
42197;BMP280;27866;48.146;17.098;2023-07-13T00:09:21;99265.34;;;24.53
42197;BMP280;27866;48.146;17.098;2023-07-13T00:13:32;99267.38;;;24.51
42197;BMP280;27866;48.146;17.098;2023-07-13T00:17:44;99264.13;;;24.49
42197;BMP280;27866;48.146;17.098;2023-07-13T00:21:55;99264.72;;;24.51
42197;BMP280;27866;48.146;17.098;2023-07-13T00:26:08;99265.16;;;24.48
42197;BMP280;27866;48.146;17.098;2023-07-13T00:30:20;99270.44;;;24.48
42197;BMP280;27866;48.146;17.098;2023-07-13T00:34:31;99259.84;;;24.48
42197;BMP280;27866;48.146;17.098;2023-07-13T00:38:43;99247.84;;;24.46
42197;BMP280;27866;48.146;17.098;2023-07-13T00:42:57;99253.34;;;24.44
42197;BMP280;27866;48.146;17.098;2023-07-13T00:47:08;99251.31;;;24.46
42197;BMP280;27866;48.146;17.098;2023-07-13T00:51:27;99252.09;;;24.47
42197;BMP280;27866;48.146;17.098;2023-07-13T00:55:40;99256.13;;;24.37
42197;BMP280;27866;48.146;17.098;2023-07-13T00:59:54;99250.63;;;24.32
42197;BMP280;27866;48.146;17.098;2023-07-13T01:04:06;99257.75;;;24.25
42197;BMP280;27866;48.146;17.098;2023-07-13T01:08:20;99251.41;;;24.26
42197;BMP280;27866;48.146;17.098;2023-07-13T01:12:32;99250.38;;;24.21
42197;BMP280;27866;48.146;17.098;2023-07-13T01:16:44;99227.38;;;24.09
42197;BMP280;27866;48.146;17.098;2023-07-13T01:21:03;99206.84;;;24.10
42197;BMP280;27866;48.146;17.098;2023-07-13T01:25:15;99219.03;;;24.24
42197;BMP280;27866;48.146;17.098;2023-07-13T01:29:28;99212.56;;;24.33
42197;BMP280;27866;48.146;17.098;2023-07-13T01:33:39;99219.69;;;24.39
42197;BMP280;27866;48.146;17.098;2023-07-13T01:37:51;99210.97;;;24.44
42197;BMP280;27866;48.146;17.098;2023-07-13T01:42:02;99230.91;;;24.47
42197;BMP280;27866;48.146;17.098;2023-07-13T01:46:13;99229.09;;;24.47
42197;BMP280;27866;48.146;17.098;2023-07-13T01:50:25;99228.47;;;24.45
42197;BMP280;27866;48.146;17.098;2023-07-13T01:54:37;99206.06;;;24.41
42197;BMP280;27866;48.146;17.098;2023-07-13T01:58:48;99196.72;;;24.45
42197;BMP280;27866;48.146;17.098;2023-07-13T02:02:59;99199.38;;;24.52
42197;BMP280;27866;48.146;17.098;2023-07-13T02:07:11;99204.44;;;24.66
42197;BMP280;27866;48.146;17.098;2023-07-13T02:11:22;99208.13;;;24.71
42197;BMP280;27866;48.146;17.098;2023-07-13T02:15:33;99210.56;;;24.72
42197;BMP280;27866;48.146;17.098;2023-07-13T02:19:44;99202.81;;;24.77
42197;BMP280;27866;48.146;17.098;2023-07-13T02:23:55;99203.84;;;24.76
42197;BMP280;27866;48.146;17.098;2023-07-13T02:28:08;99200.78;;;24.67
42197;BMP280;27866;48.146;17.098;2023-07-13T02:32:19;99201.00;;;24.65
42197;BMP280;27866;48.146;17.098;2023-07-13T02:36:31;99223.41;;;24.69
42197;BMP280;27866;48.146;17.098;2023-07-13T02:40:42;99255.16;;;24.75
42197;BMP280;27866;48.146;17.098;2023-07-13T02:44:53;99267.00;;;24.79
42197;BMP280;27866;48.146;17.098;2023-07-13T02:49:04;99294.50;;;24.78
42197;BMP280;27866;48.146;17.098;2023-07-13T02:53:16;99325.50;;;24.84
42197;BMP280;27866;48.146;17.098;2023-07-13T02:57:27;99345.25;;;24.82
42197;BMP280;27866;48.146;17.098;2023-07-13T03:01:39;99363.38;;;24.84
42197;BMP280;27866;48.146;17.098;2023-07-13T03:05:58;99369.28;;;24.74
42197;BMP280;27866;48.146;17.098;2023-07-13T03:10:12;99386.19;;;24.79
42197;BMP280;27866;48.146;17.098;2023-07-13T03:14:31;99409.03;;;24.80
42197;BMP280;27866;48.146;17.098;2023-07-13T03:18:45;99414.28;;;24.74
42197;BMP280;27866;48.146;17.098;2023-07-13T03:22:57;99426.75;;;24.80
42197;BMP280;27866;48.146;17.098;2023-07-13T03:27:08;99427.78;;;24.91
42197;BMP280;27866;48.146;17.098;2023-07-13T03:31:26;99430.84;;;24.95
42197;BMP280;27866;48.146;17.098;2023-07-13T03:35:40;99428.00;;;24.90
42197;BMP280;27866;48.146;17.098;2023-07-13T03:39:52;99437.72;;;24.70
42197;BMP280;27866;48.146;17.098;2023-07-13T03:44:05;99429.34;;;24.61
42197;BMP280;27866;48.146;17.098;2023-07-13T03:48:16;99425.97;;;24.40
42197;BMP280;27866;48.146;17.098;2023-07-13T03:52:27;99424.69;;;24.30
42197;BMP280;27866;48.146;17.098;2023-07-13T03:56:39;99425.03;;;24.21
42197;BMP280;27866;48.146;17.098;2023-07-13T04:00:53;99423.34;;;24.07
42197;BMP280;27866;48.146;17.098;2023-07-13T04:05:04;99429.97;;;23.91
42197;BMP280;27866;48.146;17.098;2023-07-13T04:09:15;99441.16;;;23.93
42197;BMP280;27866;48.146;17.098;2023-07-13T04:13:27;99453.97;;;23.89
42197;BMP280;27866;48.146;17.098;2023-07-13T04:17:38;99456.56;;;23.83
42197;BMP280;27866;48.146;17.098;2023-07-13T04:21:49;99460.59;;;23.79
42197;BMP280;27866;48.146;17.098;2023-07-13T04:26:00;99473.38;;;23.76
42197;BMP280;27866;48.146;17.098;2023-07-13T04:30:11;99474.34;;;23.68
42197;BMP280;27866;48.146;17.098;2023-07-13T04:34:22;99467.66;;;23.52
42197;BMP280;27866;48.146;17.098;2023-07-13T04:38:35;99456.28;;;23.52
42197;BMP280;27866;48.146;17.098;2023-07-13T04:42:46;99445.28;;;23.48
42197;BMP280;27866;48.146;17.098;2023-07-13T04:46:58;99434.13;;;23.52
42197;BMP280;27866;48.146;17.098;2023-07-13T04:51:09;99431.34;;;23.60
42197;BMP280;27866;48.146;17.098;2023-07-13T04:55:20;99401.75;;;23.71
42197;BMP280;27866;48.146;17.098;2023-07-13T04:59:35;99381.81;;;23.75
42197;BMP280;27866;48.146;17.098;2023-07-13T05:03:46;99356.47;;;23.86
42197;BMP280;27866;48.146;17.098;2023-07-13T05:07:57;99337.44;;;23.97
42197;BMP280;27866;48.146;17.098;2023-07-13T05:12:08;99313.66;;;24.10
42197;BMP280;27866;48.146;17.098;2023-07-13T05:16:20;99277.84;;;24.13
42197;BMP280;27866;48.146;17.098;2023-07-13T05:20:31;99279.84;;;24.05
42197;BMP280;27866;48.146;17.098;2023-07-13T05:24:42;99290.03;;;24.02
42197;BMP280;27866;48.146;17.098;2023-07-13T05:28:53;99275.97;;;24.01
42197;BMP280;27866;48.146;17.098;2023-07-13T05:33:04;99260.97;;;24.21
42197;BMP280;27866;48.146;17.098;2023-07-13T05:37:15;99255.09;;;24.25
42197;BMP280;27866;48.146;17.098;2023-07-13T05:41:26;99272.06;;;24.49
42197;BMP280;27866;48.146;17.098;2023-07-13T05:45:38;99292.84;;;24.52
42197;BMP280;27866;48.146;17.098;2023-07-13T05:49:49;99311.22;;;24.72
42197;BMP280;27866;48.146;17.098;2023-07-13T05:54:00;99312.22;;;24.78
42197;BMP280;27866;48.146;17.098;2023-07-13T05:58:11;99338.38;;;25.12
42197;BMP280;27866;48.146;17.098;2023-07-13T06:02:22;99349.34;;;25.28
42197;BMP280;27866;48.146;17.098;2023-07-13T06:06:33;99357.75;;;25.31
42197;BMP280;27866;48.146;17.098;2023-07-13T06:10:45;99372.41;;;25.40
42197;BMP280;27866;48.146;17.098;2023-07-13T06:14:56;99390.75;;;25.41
42197;BMP280;27866;48.146;17.098;2023-07-13T06:19:07;99397.28;;;25.45
42197;BMP280;27866;48.146;17.098;2023-07-13T06:23:18;99393.59;;;25.65
42197;BMP280;27866;48.146;17.098;2023-07-13T06:27:30;99397.69;;;25.74
42197;BMP280;27866;48.146;17.098;2023-07-13T06:31:41;99403.19;;;25.66
42197;BMP280;27866;48.146;17.098;2023-07-13T06:35:52;99411.56;;;25.57
42197;BMP280;27866;48.146;17.098;2023-07-13T06:40:03;99411.34;;;25.40
42197;BMP280;27866;48.146;17.098;2023-07-13T06:44:14;99400.94;;;25.63
42197;BMP280;27866;48.146;17.098;2023-07-13T06:48:25;99409.50;;;25.53
42197;BMP280;27866;48.146;17.098;2023-07-13T06:52:39;99413.19;;;25.45
42197;BMP280;27866;48.146;17.098;2023-07-13T06:56:50;99423.78;;;25.39
42197;BMP280;27866;48.146;17.098;2023-07-13T07:01:02;99427.47;;;25.32
42197;BMP280;27866;48.146;17.098;2023-07-13T07:05:13;99437.47;;;25.24
42197;BMP280;27866;48.146;17.098;2023-07-13T07:09:24;99432.34;;;25.28
42197;BMP280;27866;48.146;17.098;2023-07-13T07:13:35;99433.59;;;25.39
42197;BMP280;27866;48.146;17.098;2023-07-13T07:17:46;99444.00;;;25.53
42197;BMP280;27866;48.146;17.098;2023-07-13T07:21:57;99432.16;;;25.49
42197;BMP280;27866;48.146;17.098;2023-07-13T07:26:08;99441.75;;;25.62
42197;BMP280;27866;48.146;17.098;2023-07-13T07:30:20;99443.41;;;25.76
42197;BMP280;27866;48.146;17.098;2023-07-13T07:34:31;99435.97;;;26.15
42197;BMP280;27866;48.146;17.098;2023-07-13T07:38:43;99432.00;;;26.56
42197;BMP280;27866;48.146;17.098;2023-07-13T07:42:54;99427.47;;;27.05
42197;BMP280;27866;48.146;17.098;2023-07-13T07:47:06;99409.19;;;27.86
42197;BMP280;27866;48.146;17.098;2023-07-13T07:51:17;99400.16;;;28.28
42197;BMP280;27866;48.146;17.098;2023-07-13T07:55:28;99395.94;;;28.38
42197;BMP280;27866;48.146;17.098;2023-07-13T07:59:39;99393.72;;;28.52
42197;BMP280;27866;48.146;17.098;2023-07-13T08:03:50;99398.69;;;29.06
42197;BMP280;27866;48.146;17.098;2023-07-13T08:08:01;99387.03;;;29.80
42197;BMP280;27866;48.146;17.098;2023-07-13T08:12:12;99369.38;;;30.23
42197;BMP280;27866;48.146;17.098;2023-07-13T08:16:23;99367.75;;;29.78
42197;BMP280;27866;48.146;17.098;2023-07-13T08:20:38;99368.13;;;29.70
42197;BMP280;27866;48.146;17.098;2023-07-13T08:24:50;99395.00;;;29.36
42197;BMP280;27866;48.146;17.098;2023-07-13T08:29:06;99403.09;;;28.55
42197;BMP280;27866;48.146;17.098;2023-07-13T08:33:19;99418.06;;;28.38
42197;BMP280;27866;48.146;17.098;2023-07-13T08:37:31;99412.63;;;30.48
42197;BMP280;27866;48.146;17.098;2023-07-13T08:41:45;99414.72;;;31.22
42197;BMP280;27866;48.146;17.098;2023-07-13T08:46:38;99419.97;;;30.90
42197;BMP280;27866;48.146;17.098;2023-07-13T08:50:58;99410.44;;;30.45
42197;BMP280;27866;48.146;17.098;2023-07-13T08:55:16;99425.75;;;30.60
42197;BMP280;27866;48.146;17.098;2023-07-13T08:59:29;99418.16;;;31.50
42197;BMP280;27866;48.146;17.098;2023-07-13T09:03:48;99434.78;;;31.36
42197;BMP280;27866;48.146;17.098;2023-07-13T09:17:35;99434.88;;;32.04
42197;BMP280;27866;48.146;17.098;2023-07-13T09:21:52;99439.09;;;37.42
42197;BMP280;27866;48.146;17.098;2023-07-13T09:26:14;99451.63;;;39.57
42197;BMP280;27866;48.146;17.098;2023-07-13T09:30:40;99477.88;;;40.85
42197;BMP280;27866;48.146;17.098;2023-07-13T09:34:54;99470.66;;;40.94
42197;BMP280;27866;48.146;17.098;2023-07-13T09:43:19;99450.91;;;45.58
42197;BMP280;27866;48.146;17.098;2023-07-13T09:47:39;99442.66;;;47.30
42197;BMP280;27866;48.146;17.098;2023-07-13T09:52:02;99434.50;;;48.22
42197;BMP280;27866;48.146;17.098;2023-07-13T09:56:22;99427.63;;;48.72
42197;BMP280;27866;48.146;17.098;2023-07-13T10:00:33;99431.31;;;48.35
42197;BMP280;27866;48.146;17.098;2023-07-13T10:04:44;99425.75;;;49.40
42197;BMP280;27866;48.146;17.098;2023-07-13T10:08:56;99425.16;;;49.31
42197;BMP280;27866;48.146;17.098;2023-07-13T10:17:37;99423.41;;;49.93
42197;BMP280;27866;48.146;17.098;2023-07-13T10:21:56;99422.13;;;50.46
42197;BMP280;27866;48.146;17.098;2023-07-13T10:26:17;99417.41;;;50.47
42197;BMP280;27866;48.146;17.098;2023-07-13T10:30:32;99433.44;;;51.32
42197;BMP280;27866;48.146;17.098;2023-07-13T10:34:44;99438.06;;;49.79
42197;BMP280;27866;48.146;17.098;2023-07-13T10:39:00;99436.59;;;49.48
42197;BMP280;27866;48.146;17.098;2023-07-13T10:43:18;99426.09;;;49.20
42197;BMP280;27866;48.146;17.098;2023-07-13T10:47:31;99389.78;;;47.33
42197;BMP280;27866;48.146;17.098;2023-07-13T10:51:42;99411.47;;;45.31
42197;BMP280;27866;48.146;17.098;2023-07-13T11:00:17;99397.72;;;41.78
42197;BMP280;27866;48.146;17.098;2023-07-13T11:04:40;99373.78;;;41.24
42197;BMP280;27866;48.146;17.098;2023-07-13T11:08:54;99393.38;;;42.49
42197;BMP280;27866;48.146;17.098;2023-07-13T11:13:36;99367.75;;;42.58
42197;BMP280;27866;48.146;17.098;2023-07-13T11:17:53;99371.22;;;40.67
42197;BMP280;27866;48.146;17.098;2023-07-13T11:22:12;99377.81;;;45.11
42197;BMP280;27866;48.146;17.098;2023-07-13T11:26:39;99364.66;;;41.28
42197;BMP280;27866;48.146;17.098;2023-07-13T11:35:16;99387.44;;;38.58
42197;BMP280;27866;48.146;17.098;2023-07-13T11:43:42;99394.03;;;39.11
42197;BMP280;27866;48.146;17.098;2023-07-13T11:47:54;99395.16;;;39.10
42197;BMP280;27866;48.146;17.098;2023-07-13T11:52:15;99413.94;;;43.09
42197;BMP280;27866;48.146;17.098;2023-07-13T11:56:27;99401.22;;;45.00
42197;BMP280;27866;48.146;17.098;2023-07-13T12:00:38;99368.75;;;44.34
42197;BMP280;27866;48.146;17.098;2023-07-13T12:04:51;99367.28;;;43.59
42197;BMP280;27866;48.146;17.098;2023-07-13T12:09:12;99363.19;;;44.06
42197;BMP280;27866;48.146;17.098;2023-07-13T12:13:23;99364.88;;;44.35
42197;BMP280;27866;48.146;17.098;2023-07-13T12:17:34;99350.22;;;45.04
42197;BMP280;27866;48.146;17.098;2023-07-13T12:21:46;99338.56;;;46.76
42197;BMP280;27866;48.146;17.098;2023-07-13T12:25:58;99345.06;;;46.60
42197;BMP280;27866;48.146;17.098;2023-07-13T12:30:30;99341.50;;;46.82
42197;BMP280;27866;48.146;17.098;2023-07-13T12:35:22;99331.50;;;47.63
42197;BMP280;27866;48.146;17.098;2023-07-13T12:39:38;99347.72;;;43.41
42197;BMP280;27866;48.146;17.098;2023-07-13T12:43:54;99342.44;;;46.40
42197;BMP280;27866;48.146;17.098;2023-07-13T12:48:13;99331.03;;;47.87
42197;BMP280;27866;48.146;17.098;2023-07-13T12:52:32;99330.88;;;47.69
42197;BMP280;27866;48.146;17.098;2023-07-13T12:56:44;99326.38;;;48.63
42197;BMP280;27866;48.146;17.098;2023-07-13T13:00:58;99310.13;;;48.43
42197;BMP280;27866;48.146;17.098;2023-07-13T13:05:10;99301.53;;;46.70
42197;BMP280;27866;48.146;17.098;2023-07-13T13:09:24;99293.97;;;45.34
42197;BMP280;27866;48.146;17.098;2023-07-13T13:13:36;99303.38;;;43.85
42197;BMP280;27866;48.146;17.098;2023-07-13T13:17:47;99295.38;;;43.31
42197;BMP280;27866;48.146;17.098;2023-07-13T13:21:58;99284.00;;;42.96
42197;BMP280;27866;48.146;17.098;2023-07-13T13:26:14;99295.59;;;42.01
42197;BMP280;27866;48.146;17.098;2023-07-13T13:30:28;99282.16;;;40.64
42197;BMP280;27866;48.146;17.098;2023-07-13T13:34:39;99286.56;;;40.39
42197;BMP280;27866;48.146;17.098;2023-07-13T13:38:51;99282.50;;;40.36
42197;BMP280;27866;48.146;17.098;2023-07-13T13:43:02;99288.28;;;39.16
42197;BMP280;27866;48.146;17.098;2023-07-13T13:47:29;99290.72;;;38.41
42197;BMP280;27866;48.146;17.098;2023-07-13T13:51:41;99287.66;;;37.52
42197;BMP280;27866;48.146;17.098;2023-07-13T13:55:52;99288.88;;;36.57
42197;BMP280;27866;48.146;17.098;2023-07-13T14:00:04;99279.19;;;36.51
42197;BMP280;27866;48.146;17.098;2023-07-13T14:04:20;99271.31;;;35.98
42197;BMP280;27866;48.146;17.098;2023-07-13T14:08:32;99260.31;;;35.80
42197;BMP280;27866;48.146;17.098;2023-07-13T14:12:44;99280.84;;;35.52
42197;BMP280;27866;48.146;17.098;2023-07-13T14:16:56;99280.06;;;35.18
42197;BMP280;27866;48.146;17.098;2023-07-13T14:21:16;99285.34;;;34.69
42197;BMP280;27866;48.146;17.098;2023-07-13T14:25:27;99300.19;;;34.07
42197;BMP280;27866;48.146;17.098;2023-07-13T14:29:38;99306.59;;;34.06
42197;BMP280;27866;48.146;17.098;2023-07-13T14:33:50;99310.47;;;33.75
42197;BMP280;27866;48.146;17.098;2023-07-13T14:38:01;99309.53;;;33.25
42197;BMP280;27866;48.146;17.098;2023-07-13T14:42:12;99324.38;;;32.81
42197;BMP280;27866;48.146;17.098;2023-07-13T14:46:29;99326.25;;;32.59
42197;BMP280;27866;48.146;17.098;2023-07-13T14:50:40;99330.31;;;32.36
42197;BMP280;27866;48.146;17.098;2023-07-13T14:54:52;99337.09;;;32.07
42197;BMP280;27866;48.146;17.098;2023-07-13T14:59:04;99341.16;;;31.72
42197;BMP280;27866;48.146;17.098;2023-07-13T15:03:18;99332.94;;;31.63
42197;BMP280;27866;48.146;17.098;2023-07-13T15:07:32;99329.63;;;31.56
42197;BMP280;27866;48.146;17.098;2023-07-13T15:11:44;99328.50;;;31.52
42197;BMP280;27866;48.146;17.098;2023-07-13T15:15:55;99337.03;;;31.33
42197;BMP280;27866;48.146;17.098;2023-07-13T15:20:29;99342.00;;;31.14
42197;BMP280;27866;48.146;17.098;2023-07-13T15:24:40;99344.50;;;30.88
42197;BMP280;27866;48.146;17.098;2023-07-13T15:28:51;99348.59;;;30.80
42197;BMP280;27866;48.146;17.098;2023-07-13T15:33:14;99352.47;;;30.72
42197;BMP280;27866;48.146;17.098;2023-07-13T15:37:25;99340.84;;;30.67
42197;BMP280;27866;48.146;17.098;2023-07-13T15:41:37;99360.44;;;30.67
42197;BMP280;27866;48.146;17.098;2023-07-13T15:45:48;99360.53;;;30.61
42197;BMP280;27866;48.146;17.098;2023-07-13T15:49:59;99366.72;;;30.51
42197;BMP280;27866;48.146;17.098;2023-07-13T15:54:13;99348.97;;;30.45
42197;BMP280;27866;48.146;17.098;2023-07-13T15:58:25;99358.72;;;30.51
42197;BMP280;27866;48.146;17.098;2023-07-13T16:02:37;99379.16;;;30.56
42197;BMP280;27866;48.146;17.098;2023-07-13T16:06:48;99379.91;;;30.41
42197;BMP280;27866;48.146;17.098;2023-07-13T16:11:00;99378.03;;;30.41
42197;BMP280;27866;48.146;17.098;2023-07-13T16:15:15;99383.13;;;30.43
42197;BMP280;27866;48.146;17.098;2023-07-13T16:19:26;99385.72;;;30.27
42197;BMP280;27866;48.146;17.098;2023-07-13T16:23:42;99395.84;;;30.03
42197;BMP280;27866;48.146;17.098;2023-07-13T16:27:53;99401.78;;;29.82
42197;BMP280;27866;48.146;17.098;2023-07-13T16:32:12;99407.00;;;29.66
42197;BMP280;27866;48.146;17.098;2023-07-13T16:36:25;99412.06;;;29.57
42197;BMP280;27866;48.146;17.098;2023-07-13T16:40:36;99421.94;;;29.45
42197;BMP280;27866;48.146;17.098;2023-07-13T16:44:47;99418.66;;;29.43
42197;BMP280;27866;48.146;17.098;2023-07-13T16:48:58;99431.06;;;29.38
42197;BMP280;27866;48.146;17.098;2023-07-13T16:53:19;99420.16;;;29.28
42197;BMP280;27866;48.146;17.098;2023-07-13T16:57:33;99430.69;;;29.35
42197;BMP280;27866;48.146;17.098;2023-07-13T17:01:44;99433.34;;;29.23
42197;BMP280;27866;48.146;17.098;2023-07-13T17:05:57;99432.06;;;29.15
42197;BMP280;27866;48.146;17.098;2023-07-13T17:10:16;99443.19;;;29.23
42197;BMP280;27866;48.146;17.098;2023-07-13T17:14:29;99453.91;;;29.06
42197;BMP280;27866;48.146;17.098;2023-07-13T17:18:46;99443.06;;;28.90
42197;BMP280;27866;48.146;17.098;2023-07-13T17:22:57;99452.31;;;28.87
42197;BMP280;27866;48.146;17.098;2023-07-13T17:27:08;99446.03;;;28.64
42197;BMP280;27866;48.146;17.098;2023-07-13T17:31:19;99443.69;;;28.57
42197;BMP280;27866;48.146;17.098;2023-07-13T17:35:33;99443.44;;;28.41
42197;BMP280;27866;48.146;17.098;2023-07-13T17:39:45;99441.09;;;28.33
42197;BMP280;27866;48.146;17.098;2023-07-13T17:43:56;99434.44;;;28.24
42197;BMP280;27866;48.146;17.098;2023-07-13T17:48:07;99436.03;;;28.08
42197;BMP280;27866;48.146;17.098;2023-07-13T17:52:19;99444.72;;;27.97
42197;BMP280;27866;48.146;17.098;2023-07-13T17:56:30;99443.34;;;27.89
42197;BMP280;27866;48.146;17.098;2023-07-13T18:00:43;99444.31;;;27.76
42197;BMP280;27866;48.146;17.098;2023-07-13T18:04:56;99446.66;;;27.67
42197;BMP280;27866;48.146;17.098;2023-07-13T18:09:19;99448.75;;;27.59
42197;BMP280;27866;48.146;17.098;2023-07-13T18:13:31;99448.56;;;27.60
42197;BMP280;27866;48.146;17.098;2023-07-13T18:17:50;99448.94;;;27.63
42197;BMP280;27866;48.146;17.098;2023-07-13T18:22:03;99443.09;;;27.49
42197;BMP280;27866;48.146;17.098;2023-07-13T18:26:20;99458.47;;;27.47
42197;BMP280;27866;48.146;17.098;2023-07-13T18:30:31;99460.34;;;27.40
42197;BMP280;27866;48.146;17.098;2023-07-13T18:34:42;99466.97;;;27.31
42197;BMP280;27866;48.146;17.098;2023-07-13T18:38:54;99473.28;;;27.31
42197;BMP280;27866;48.146;17.098;2023-07-13T18:43:05;99483.31;;;27.29
42197;BMP280;27866;48.146;17.098;2023-07-13T18:47:17;99486.63;;;27.24
42197;BMP280;27866;48.146;17.098;2023-07-13T18:51:33;99490.31;;;27.23
42197;BMP280;27866;48.146;17.098;2023-07-13T18:55:44;99491.41;;;27.16
42197;BMP280;27866;48.146;17.098;2023-07-13T18:59:56;99501.44;;;27.14
42197;BMP280;27866;48.146;17.098;2023-07-13T19:04:30;99501.06;;;27.11
42197;BMP280;27866;48.146;17.098;2023-07-13T19:08:41;99503.72;;;27.04
42197;BMP280;27866;48.146;17.098;2023-07-13T19:12:58;99507.81;;;27.07
42197;BMP280;27866;48.146;17.098;2023-07-13T19:17:10;99523.97;;;27.05
42197;BMP280;27866;48.146;17.098;2023-07-13T19:21:25;99518.63;;;27.05
42197;BMP280;27866;48.146;17.098;2023-07-13T19:25:36;99533.59;;;27.00
42197;BMP280;27866;48.146;17.098;2023-07-13T19:29:48;99539.34;;;26.97
42197;BMP280;27866;48.146;17.098;2023-07-13T19:34:13;99553.88;;;26.95
42197;BMP280;27866;48.146;17.098;2023-07-13T19:38:26;99552.66;;;26.91
42197;BMP280;27866;48.146;17.098;2023-07-13T19:42:37;99576.81;;;26.89
42197;BMP280;27866;48.146;17.098;2023-07-13T19:46:48;99573.09;;;26.84
42197;BMP280;27866;48.146;17.098;2023-07-13T19:50:59;99582.53;;;26.80
42197;BMP280;27866;48.146;17.098;2023-07-13T19:55:12;99576.41;;;26.73
42197;BMP280;27866;48.146;17.098;2023-07-13T19:59:31;99581.94;;;26.66
42197;BMP280;27866;48.146;17.098;2023-07-13T20:03:42;99600.78;;;26.58
42197;BMP280;27866;48.146;17.098;2023-07-13T20:07:56;99601.78;;;26.51
42197;BMP280;27866;48.146;17.098;2023-07-13T20:12:11;99597.50;;;26.43
42197;BMP280;27866;48.146;17.098;2023-07-13T20:16:24;99606.72;;;26.35
42197;BMP280;27866;48.146;17.098;2023-07-13T20:20:38;99594.03;;;26.24
42197;BMP280;27866;48.146;17.098;2023-07-13T20:24:49;99605.06;;;26.21
42197;BMP280;27866;48.146;17.098;2023-07-13T20:29:00;99604.25;;;26.14
42197;BMP280;27866;48.146;17.098;2023-07-13T20:33:23;99613.44;;;26.06
42197;BMP280;27866;48.146;17.098;2023-07-13T20:37:38;99618.94;;;25.98
42197;BMP280;27866;48.146;17.098;2023-07-13T20:41:49;99614.88;;;25.96
42197;BMP280;27866;48.146;17.098;2023-07-13T20:46:04;99609.13;;;25.92
42197;BMP280;27866;48.146;17.098;2023-07-13T20:50:24;99611.97;;;25.85
42197;BMP280;27866;48.146;17.098;2023-07-13T20:54:35;99604.22;;;25.83
42197;BMP280;27866;48.146;17.098;2023-07-13T20:58:47;99609.53;;;25.77
42197;BMP280;27866;48.146;17.098;2023-07-13T21:03:00;99609.72;;;25.69
42197;BMP280;27866;48.146;17.098;2023-07-13T21:07:12;99599.06;;;25.63
42197;BMP280;27866;48.146;17.098;2023-07-13T21:11:27;99606.78;;;25.58
42197;BMP280;27866;48.146;17.098;2023-07-13T21:15:39;99603.94;;;25.53
42197;BMP280;27866;48.146;17.098;2023-07-13T21:19:51;99607.78;;;25.51
42197;BMP280;27866;48.146;17.098;2023-07-13T21:24:02;99599.41;;;25.41
42197;BMP280;27866;48.146;17.098;2023-07-13T21:28:13;99600.22;;;25.35
42197;BMP280;27866;48.146;17.098;2023-07-13T21:32:24;99593.06;;;25.29
42197;BMP280;27866;48.146;17.098;2023-07-13T21:36:35;99601.00;;;25.23
42197;BMP280;27866;48.146;17.098;2023-07-13T21:40:48;99590.34;;;25.17
42197;BMP280;27866;48.146;17.098;2023-07-13T21:45:00;99600.75;;;25.12
42197;BMP280;27866;48.146;17.098;2023-07-13T21:49:11;99606.03;;;25.12
42197;BMP280;27866;48.146;17.098;2023-07-13T21:53:30;99616.03;;;25.10
42197;BMP280;27866;48.146;17.098;2023-07-13T21:57:42;99615.00;;;25.05
42197;BMP280;27866;48.146;17.098;2023-07-13T22:01:53;99610.97;;;24.88
42197;BMP280;27866;48.146;17.098;2023-07-13T22:06:05;99610.75;;;24.83
42197;BMP280;27866;48.146;17.098;2023-07-13T22:10:21;99613.78;;;24.74
42197;BMP280;27866;48.146;17.098;2023-07-13T22:14:32;99623.69;;;24.66
42197;BMP280;27866;48.146;17.098;2023-07-13T22:18:44;99633.47;;;24.66
42197;BMP280;27866;48.146;17.098;2023-07-13T22:22:56;99632.63;;;24.59
42197;BMP280;27866;48.146;17.098;2023-07-13T22:27:10;99626.47;;;24.52
42197;BMP280;27866;48.146;17.098;2023-07-13T22:31:22;99638.00;;;24.45
42197;BMP280;27866;48.146;17.098;2023-07-13T22:35:33;99644.31;;;24.44
42197;BMP280;27866;48.146;17.098;2023-07-13T22:39:44;99646.50;;;24.40
42197;BMP280;27866;48.146;17.098;2023-07-13T22:43:55;99663.16;;;24.35
42197;BMP280;27866;48.146;17.098;2023-07-13T22:48:12;99662.88;;;24.24
42197;BMP280;27866;48.146;17.098;2023-07-13T22:52:24;99667.97;;;24.25
42197;BMP280;27866;48.146;17.098;2023-07-13T22:56:35;99674.88;;;24.26
42197;BMP280;27866;48.146;17.098;2023-07-13T23:00:46;99678.78;;;24.30
42197;BMP280;27866;48.146;17.098;2023-07-13T23:04:57;99670.03;;;24.29
42197;BMP280;27866;48.146;17.098;2023-07-13T23:09:15;99680.22;;;24.32
42197;BMP280;27866;48.146;17.098;2023-07-13T23:13:28;99679.81;;;24.29
42197;BMP280;27866;48.146;17.098;2023-07-13T23:17:39;99677.16;;;24.29
42197;BMP280;27866;48.146;17.098;2023-07-13T23:21:51;99684.69;;;24.32
42197;BMP280;27866;48.146;17.098;2023-07-13T23:26:04;99685.72;;;24.31
42197;BMP280;27866;48.146;17.098;2023-07-13T23:30:21;99687.13;;;24.27
42197;BMP280;27866;48.146;17.098;2023-07-13T23:34:34;99681.00;;;24.26
42197;BMP280;27866;48.146;17.098;2023-07-13T23:38:45;99686.50;;;24.25
42197;BMP280;27866;48.146;17.098;2023-07-13T23:42:57;99686.84;;;24.22
42197;BMP280;27866;48.146;17.098;2023-07-13T23:47:08;99684.81;;;24.18
42197;BMP280;27866;48.146;17.098;2023-07-13T23:51:20;99691.09;;;24.17
42197;BMP280;27866;48.146;17.098;2023-07-13T23:55:33;99694.91;;;24.14
42197;BMP280;27866;48.146;17.098;2023-07-13T23:59:44;99701.22;;;24.13
